createdAt,value
2022-12-01T00:01:12.709Z,4.72
2022-12-01T00:06:10.727Z,4.81
2022-12-01T00:11:09.931Z,4.75
2022-12-01T00:16:13.282Z,4.55
2022-12-01T00:21:07.862Z,4.55
2022-12-01T00:26:05.286Z,4.57
2022-12-01T00:30:59.009Z,4.71
2022-12-01T00:36:00.553Z,4.66
2022-12-01T00:40:53.942Z,4.56
2022-12-01T00:45:47.362Z,4.73
2022-12-01T00:50:40.809Z,4.84
2022-12-01T00:55:35.613Z,4.74
2022-12-01T01:00:29.378Z,4.37
2022-12-01T01:05:23.089Z,4.31
2022-12-01T01:10:16.499Z,4.44
2022-12-01T01:15:12.332Z,4.48
2022-12-01T01:20:07.097Z,4.42
2022-12-01T01:25:00.480Z,4.40
2022-12-01T01:29:53.892Z,4.44
2022-12-01T01:34:48.550Z,4.71
2022-12-01T01:39:41.860Z,4.40
2022-12-01T01:44:51.273Z,4.42
2022-12-01T01:49:44.955Z,4.49
2022-12-01T01:54:45.362Z,4.58
2022-12-01T01:59:44.733Z,4.52
2022-12-01T02:04:41.545Z,4.52
2022-12-01T02:09:35.620Z,4.53
2022-12-01T02:14:58.387Z,4.49
2022-12-01T02:20:45.260Z,4.65
2022-12-01T02:25:51.719Z,4.61
2022-12-01T02:30:51.906Z,4.55
2022-12-01T02:35:51.564Z,4.46
2022-12-01T02:40:53.540Z,4.54
2022-12-01T02:45:56.630Z,4.32
2022-12-01T02:50:52.147Z,4.14
2022-12-01T02:55:58.975Z,4.22
2022-12-01T03:01:29.029Z,4.25
2022-12-01T03:06:38.238Z,4.29
2022-12-01T03:11:45.342Z,4.23
2022-12-01T03:16:51.705Z,4.09
2022-12-01T03:21:53.860Z,4.11
2022-12-01T03:26:53.583Z,4.39
2022-12-01T03:31:56.034Z,4.17
2022-12-01T03:36:54.677Z,4.01
2022-12-01T03:41:55.228Z,4.18
2022-12-01T03:46:58.126Z,4.13
2022-12-01T03:52:07.030Z,4.29
2022-12-01T03:57:10.660Z,4.23
2022-12-01T04:02:07.862Z,4.23
2022-12-01T04:07:01.389Z,4.19
2022-12-01T04:12:12.006Z,4.12
2022-12-01T04:17:06.672Z,4.22
2022-12-01T04:22:00.033Z,4.28
2022-12-01T04:26:53.390Z,4.48
2022-12-01T04:31:46.796Z,4.33
2022-12-01T04:36:41.657Z,4.35
2022-12-01T04:41:35.279Z,4.50
2022-12-01T04:46:28.646Z,4.30
2022-12-01T04:51:23.116Z,4.34
2022-12-01T04:56:17.931Z,4.28
2022-12-01T05:01:15.709Z,4.24
2022-12-01T05:06:13.261Z,4.26
2022-12-01T05:11:08.173Z,4.29
2022-12-01T05:16:09.353Z,4.29
2022-12-01T05:21:04.101Z,4.38
2022-12-01T05:25:57.868Z,4.32
2022-12-01T05:30:51.990Z,4.29
2022-12-01T05:35:46.746Z,4.11
2022-12-01T05:40:40.300Z,4.11
2022-12-01T05:45:34.290Z,4.33
2022-12-01T05:50:29.334Z,4.22
2022-12-01T05:55:24.121Z,4.35
2022-12-01T06:00:19.147Z,4.36
2022-12-01T06:05:12.603Z,4.26
2022-12-01T06:10:07.985Z,4.33
2022-12-01T06:15:02.814Z,4.32
2022-12-01T06:19:56.187Z,4.23
2022-12-01T06:24:49.534Z,4.30
2022-12-01T06:29:43.711Z,4.24
2022-12-01T06:34:38.472Z,4.23
2022-12-01T06:39:31.935Z,4.25
2022-12-01T06:44:25.388Z,4.26
2022-12-01T06:49:18.717Z,4.23
2022-12-01T06:54:15.351Z,4.11
2022-12-01T06:59:08.909Z,4.00
2022-12-01T07:04:02.670Z,4.31
2022-12-01T07:08:55.985Z,4.28
2022-12-01T07:13:50.977Z,4.42
2022-12-01T07:18:45.292Z,4.26
2022-12-01T07:23:38.826Z,4.32
2022-12-01T07:28:32.456Z,4.25
2022-12-01T07:33:27.173Z,4.24
2022-12-01T07:38:22.288Z,4.25
2022-12-01T07:43:15.993Z,4.37
2022-12-01T07:48:09.367Z,4.28
2022-12-01T07:53:04.147Z,4.32
2022-12-01T07:58:00.736Z,4.49
2022-12-01T08:02:54.199Z,4.47
2022-12-01T08:07:47.566Z,4.39
2022-12-01T08:12:42.332Z,4.53
2022-12-01T08:17:35.725Z,4.30
2022-12-01T08:22:29.085Z,4.19
2022-12-01T08:27:22.461Z,4.39
2022-12-01T08:32:18.115Z,4.58
2022-12-01T08:37:11.658Z,4.77
2022-12-01T08:42:05.264Z,4.69
2022-12-01T08:46:58.755Z,4.57
2022-12-01T08:51:53.837Z,4.59
2022-12-01T08:56:47.387Z,4.63
2022-12-01T09:01:52.124Z,4.73
2022-12-01T09:06:48.331Z,4.74
2022-12-01T09:11:44.424Z,4.67
2022-12-01T09:16:38.433Z,4.87
2022-12-01T09:21:34.930Z,4.91
2022-12-01T09:26:29.333Z,4.84
2022-12-01T09:31:24.671Z,4.65
2022-12-01T09:36:18.159Z,4.66
2022-12-01T09:41:20.388Z,4.69
2022-12-01T09:46:21.488Z,4.82
2022-12-01T09:51:18.437Z,4.89
2022-12-01T09:56:23.294Z,4.92
2022-12-01T10:01:25.846Z,4.79
2022-12-01T10:06:30.723Z,4.62
2022-12-01T10:11:34.478Z,4.64
2022-12-01T10:16:38.936Z,4.55
2022-12-01T10:22:04.520Z,4.47
2022-12-01T10:27:15.286Z,4.60
2022-12-01T10:32:19.966Z,4.62
2022-12-01T10:37:34.631Z,4.77
2022-12-01T10:42:38.754Z,4.72
2022-12-01T10:47:32.866Z,4.83
2022-12-01T10:52:37.245Z,4.76
2022-12-01T10:57:33.205Z,4.87
2022-12-01T11:02:36.326Z,4.89
2022-12-01T11:07:36.109Z,4.92
2022-12-01T11:12:30.419Z,4.94
2022-12-01T11:17:37.414Z,4.79
2022-12-01T11:22:33.933Z,4.88
2022-12-01T11:27:31.717Z,4.90
2022-12-01T11:32:39.215Z,4.93
2022-12-01T11:37:39.406Z,4.98
2022-12-01T11:42:34.563Z,5.22
2022-12-01T11:47:29.361Z,5.07
2022-12-01T11:52:33.681Z,5.21
2022-12-01T11:57:36.392Z,5.05
2022-12-01T12:02:44.525Z,4.99
2022-12-01T12:07:57.350Z,4.94
2022-12-01T12:13:15.067Z,4.92
2022-12-01T12:18:48.712Z,4.92
2022-12-01T12:24:18.194Z,4.85
2022-12-01T12:29:37.408Z,4.87
2022-12-01T12:34:48.816Z,4.90
2022-12-01T12:40:21.073Z,4.85
2022-12-01T12:45:26.515Z,4.96
2022-12-01T12:50:32.611Z,4.97
2022-12-01T13:00:38.163Z,5.07
2022-12-01T13:11:01.689Z,5.21
2022-12-01T13:16:00.778Z,4.99
2022-12-01T13:20:54.498Z,4.94
2022-12-01T13:26:01.384Z,5.10
2022-12-01T13:31:19.787Z,5.26
2022-12-01T13:41:30.812Z,5.24
2022-12-01T13:46:30.802Z,5.21
2022-12-01T13:51:25.394Z,5.06
2022-12-01T13:56:48.388Z,5.18
2022-12-01T14:12:25.362Z,5.12
2022-12-01T14:17:30.627Z,5.04
2022-12-01T14:22:46.900Z,5.00
2022-12-01T14:27:43.311Z,5.00
2022-12-01T14:32:39.577Z,5.07
2022-12-01T14:48:00.882Z,5.09
2022-12-01T14:53:00.119Z,5.06
2022-12-01T14:58:06.342Z,4.98
2022-12-01T15:03:08.310Z,4.94
2022-12-01T15:08:40.884Z,4.87
2022-12-01T15:13:42.242Z,4.92
2022-12-01T15:18:38.481Z,5.00
2022-12-01T15:23:31.799Z,5.03
2022-12-01T15:28:33.664Z,4.98
2022-12-01T15:33:36.786Z,5.06
2022-12-01T15:38:36.814Z,4.93
2022-12-01T15:43:37.839Z,4.95
2022-12-01T15:48:35.445Z,5.11
2022-12-01T15:53:33.937Z,4.98
2022-12-01T16:03:29.489Z,5.02
2022-12-01T16:08:27.132Z,4.99
2022-12-01T16:13:45.478Z,4.95
2022-12-01T16:18:38.824Z,4.99
2022-12-01T16:23:34.085Z,5.03
2022-12-01T16:28:35.821Z,4.87
2022-12-01T16:33:30.937Z,4.88
2022-12-01T16:38:31.489Z,4.94
2022-12-01T16:43:27.978Z,4.88
2022-12-01T16:48:21.758Z,4.91
2022-12-01T16:53:17.207Z,4.82
2022-12-01T16:58:24.284Z,4.87
2022-12-01T17:03:18.613Z,4.80
2022-12-01T17:08:12.122Z,4.97
2022-12-01T17:13:06.860Z,4.92
2022-12-01T17:18:00.213Z,4.88
2022-12-01T17:22:53.606Z,4.88
2022-12-01T17:27:47.015Z,4.93
2022-12-01T17:32:41.709Z,4.91
2022-12-01T17:37:36.942Z,4.90
2022-12-01T17:42:32.573Z,4.83
2022-12-01T17:47:27.170Z,4.78
2022-12-01T17:52:26.644Z,4.69
2022-12-01T17:57:21.795Z,4.72
2022-12-01T18:02:15.243Z,4.71
2022-12-01T18:07:08.634Z,4.80
2022-12-01T18:12:03.447Z,4.84
2022-12-01T18:16:56.779Z,4.85
2022-12-01T18:21:50.796Z,4.97
2022-12-01T18:26:44.775Z,4.88
2022-12-01T18:31:40.443Z,4.83
2022-12-01T18:36:38.332Z,4.76
2022-12-01T18:41:32.220Z,4.73
2022-12-01T18:46:25.704Z,5.00
2022-12-01T18:51:22.103Z,5.06
2022-12-01T18:56:17.340Z,5.02
2022-12-01T19:01:21.517Z,5.06
2022-12-01T19:06:15.034Z,5.04
2022-12-01T19:16:12.116Z,4.87
2022-12-01T19:21:08.232Z,4.82
2022-12-01T19:26:06.089Z,5.00
2022-12-01T19:30:59.552Z,4.77
2022-12-01T19:35:54.468Z,4.83
2022-12-01T19:40:47.948Z,4.83
2022-12-01T19:45:41.779Z,4.84
2022-12-01T19:50:36.717Z,4.88
2022-12-01T19:55:31.709Z,4.82
2022-12-01T20:00:34.019Z,4.89
2022-12-01T20:05:27.954Z,4.78
2022-12-01T20:10:28.227Z,4.72
2022-12-01T20:15:23.377Z,4.70
2022-12-01T20:20:17.825Z,4.64
2022-12-01T20:25:11.151Z,4.71
2022-12-01T20:30:05.107Z,4.66
2022-12-01T20:34:59.845Z,4.52
2022-12-01T20:39:53.226Z,4.62
2022-12-01T20:44:46.680Z,4.58
2022-12-01T20:49:40.135Z,4.55
2022-12-01T20:54:35.046Z,4.60
2022-12-01T20:59:29.949Z,4.58
2022-12-01T21:04:23.426Z,4.59
2022-12-01T21:09:16.899Z,4.52
2022-12-01T21:14:20.979Z,4.58
2022-12-01T21:19:23.036Z,4.60
2022-12-01T21:24:19.906Z,4.58
2022-12-01T21:29:25.063Z,4.64
2022-12-01T21:34:22.126Z,4.70
2022-12-01T21:39:18.499Z,4.62
2022-12-01T21:44:17.309Z,4.70
2022-12-01T21:49:22.671Z,4.74
2022-12-01T21:54:21.026Z,4.56
2022-12-01T21:59:20.534Z,4.45
2022-12-01T22:04:24.720Z,4.45
2022-12-01T22:56:31.981Z,4.62
2022-12-01T23:01:30.246Z,4.63
2022-12-01T23:07:08.394Z,4.64
2022-12-01T23:25:31.456Z,4.29
2022-12-01T23:30:25.173Z,4.11
2022-12-01T23:35:19.773Z,4.22
2022-12-01T23:40:24.476Z,4.36
2022-12-01T23:45:26.909Z,4.25
2022-12-01T23:50:25.802Z,4.27
2022-12-01T23:55:26.754Z,4.32
